Forside
METAR-TAF:

METAR-TAF

Lufthavne :

Centralia Municipal Airport

Centralia, Illinois, USA

Breddekreds: 38-30-53N, længdekreds: 089-05-32W, højde: 163 m

Aktuelle vejr

Denne rapport blev lavet for 27 minutter siden, kl. 11:55 UTC
Vind 15 kt fra sydøst med vindstød på up til 20 kt
Temperatur -2°C
Fugtighed 63%
Tryk 1022 hPa
Sigt: 16.1 km
Overskyet i en højde af 4100 ft

METAR: KENL 221155Z AUTO 14015G20KT 10SM OVC041 M02/M08 A3019 RMK AO2 T10201076 11020 21050

Tid: 06:22 (12:22 UTC)


TAF: fraværende

Vejrobservationer og prognoser fra mere end 4000 lufthavne (METAR og TAF).

De gule og røde prikker repræsenterer de meteorologiske stationer.

Flyt musen over at se navnet på stationen.

Så klik over at se vejr observationer og prognoser.

At skifte det kort: Klik på de grønne knapper med et sort kors for at zoome ind; på den grønne knap med en bindestreg for at zoome ud; eller på de grønne pile for tilstødende kort.


METAR-TAF: